Time;durP1;ratioP1;P1;durP2;ratioP2;P2;SDS_P1;SDS_P2;PMS_P1;PMS_P2;Temp;Humidity;BMP_temperature;BMP_pressure;BME280_temperature;BME280_humidity;BME280_pressure;Samples;Min_cycle;Max_cycle;Signal;HPM_P1;HPM_P2
2021/04/20 00:01:18;;;;;;;24.25;17.88;;;9.20;99.90;;;;;;4981484;28;20235;-79
2021/04/20 00:03:44;;;;;;;19.70;16.58;;;9.10;99.90;;;;;;4991650;28;20224;-78
2021/04/20 00:06:12;;;;;;;20.45;18.25;;;9.10;99.90;;;;;;4990554;28;20205;-79
2021/04/20 00:08:38;;;;;;;22.67;18.58;;;9.10;99.90;;;;;;4989441;28;20383;-80
2021/04/20 00:11:06;;;;;;;25.65;19.42;;;9.10;99.90;;;;;;4983854;28;20218;-81
2021/04/20 00:13:32;;;;;;;26.65;21.25;;;9.10;99.90;;;;;;4984909;28;20277;-79
2021/04/20 00:15:59;;;;;;;25.38;19.35;;;9.00;99.90;;;;;;4987064;28;20609;-79
2021/04/20 00:18:25;;;;;;;21.20;18.95;;;9.00;99.90;;;;;;4991837;28;20314;-79
2021/04/20 00:20:52;;;;;;;21.48;17.50;;;9.00;99.90;;;;;;4986241;28;20294;-81
2021/04/20 00:23:19;;;;;;;25.00;19.40;;;8.90;99.90;;;;;;4988713;28;20214;-79
2021/04/20 00:25:46;;;;;;;25.08;18.30;;;8.90;99.90;;;;;;4988211;28;20228;-79
2021/04/20 00:28:23;;;;;;;26.50;20.63;;;8.90;99.90;;;;;;4992191;28;20210;-79
2021/04/20 00:30:49;;;;;;;22.90;20.35;;;8.90;99.90;;;;;;4995623;28;20209;-78
2021/04/20 00:33:15;;;;;;;25.65;19.25;;;9.00;99.90;;;;;;4980347;28;20799;-79
2021/04/20 00:35:42;;;;;;;27.00;21.58;;;9.00;99.90;;;;;;4993152;28;20208;-79
2021/04/20 00:38:08;;;;;;;26.92;21.75;;;9.00;99.90;;;;;;4978754;28;20614;-80
2021/04/20 00:40:36;;;;;;;30.85;24.25;;;9.00;99.90;;;;;;4986799;28;20204;-80
2021/04/20 00:43:03;;;;;;;31.83;23.70;;;9.00;99.90;;;;;;4990911;28;20669;-79
2021/04/20 00:45:31;;;;;;;30.45;24.38;;;9.10;99.90;;;;;;4994883;28;20207;-78
2021/04/20 00:47:58;;;;;;;29.40;25.27;;;9.10;99.90;;;;;;4987402;28;20630;-78
2021/04/20 00:50:26;;;;;;;31.38;23.33;;;9.10;99.90;;;;;;4982853;28;20206;-78
2021/04/20 00:52:53;;;;;;;27.70;22.70;;;9.10;99.90;;;;;;4979009;28;20586;-79
2021/04/20 00:55:19;;;;;;;24.10;19.55;;;9.10;99.90;;;;;;4987005;28;20196;-81
2021/04/20 00:57:47;;;;;;;26.10;20.40;;;9.00;99.90;;;;;;4987108;28;20207;-79
2021/04/20 01:00:16;;;;;;;25.98;20.02;;;9.00;99.90;;;;;;4990172;28;20238;-79
2021/04/20 01:02:42;;;;;;;21.48;17.67;;;9.00;99.90;;;;;;4986025;28;20315;-78
2021/04/20 01:05:13;;;;;;;21.65;17.20;;;8.90;99.90;;;;;;4990661;28;20220;-78
2021/04/20 01:07:40;;;;;;;24.73;16.77;;;8.90;99.90;;;;;;4971302;28;20699;-79
2021/04/20 01:10:09;;;;;;;20.17;16.15;;;8.80;99.90;;;;;;4983117;28;20207;-79
2021/04/20 01:12:36;;;;;;;17.58;15.15;;;8.70;99.90;;;;;;4987929;28;20280;-81
2021/04/20 01:15:05;;;;;;;16.55;14.55;;;8.70;99.90;;;;;;4988860;28;20201;-79
2021/04/20 01:17:31;;;;;;;17.95;14.80;;;8.60;99.90;;;;;;4992922;28;20234;-78
2021/04/20 01:19:59;;;;;;;17.27;14.00;;;8.60;99.90;;;;;;4985461;28;20552;-78
2021/04/20 01:22:31;;;;;;;16.30;13.98;;;8.50;99.90;;;;;;4991503;28;20250;-79
2021/04/20 01:24:59;;;;;;;16.63;13.85;;;8.50;99.90;;;;;;4979411;28;20205;-80
2021/04/20 01:27:26;;;;;;;15.60;13.10;;;8.40;99.90;;;;;;4992703;28;20671;-80
2021/04/20 01:29:53;;;;;;;13.63;12.18;;;8.40;99.90;;;;;;4990208;28;20568;-79
2021/04/20 01:32:20;;;;;;;14.18;12.07;;;8.30;99.90;;;;;;4986861;28;20204;-78
2021/04/20 01:34:47;;;;;;;14.85;13.32;;;8.30;99.90;;;;;;4988343;28;20300;-80
2021/04/20 01:37:13;;;;;;;14.98;13.18;;;8.20;99.90;;;;;;4983442;28;20304;-81
2021/04/20 01:39:42;;;;;;;18.30;14.63;;;8.20;99.90;;;;;;4991534;28;20234;-79
2021/04/20 01:42:10;;;;;;;15.43;13.82;;;8.30;99.90;;;;;;4986601;28;20230;-79
2021/04/20 01:44:37;;;;;;;15.48;13.60;;;8.30;99.90;;;;;;4985645;28;20208;-78
2021/04/20 01:47:04;;;;;;;19.70;14.40;;;8.20;99.90;;;;;;4993254;28;20236;-78
2021/04/20 01:49:31;;;;;;;17.13;12.35;;;8.20;99.90;;;;;;4994530;28;20203;-80
2021/04/20 01:51:58;;;;;;;16.55;12.57;;;8.20;99.90;;;;;;4995875;28;20534;-81
2021/04/20 01:54:25;;;;;;;13.13;11.82;;;8.20;99.90;;;;;;4989111;28;20568;-81
2021/04/20 01:56:54;;;;;;;17.27;13.27;;;8.10;99.90;;;;;;4996422;28;20297;-79
2021/04/20 01:59:23;;;;;;;13.65;12.05;;;8.10;99.90;;;;;;4998822;28;20219;-79
2021/04/20 02:01:51;;;;;;;18.45;14.52;;;8.00;99.90;;;;;;4999442;28;20242;-79
2021/04/20 02:04:17;;;;;;;16.42;14.50;;;8.00;99.90;;;;;;4982480;28;20569;-83
2021/04/20 02:06:44;;;;;;;17.10;14.35;;;8.00;99.90;;;;;;4992184;28;20206;-79
2021/04/20 02:09:11;;;;;;;17.90;14.90;;;8.00;99.90;;;;;;4987107;28;20203;-82
2021/04/20 02:11:38;;;;;;;17.00;13.40;;;7.90;99.90;;;;;;4994879;28;20315;-78
2021/04/20 02:14:04;;;;;;;16.92;14.32;;;7.90;99.90;;;;;;4997048;28;20209;-80
2021/04/20 02:16:31;;;;;;;13.27;11.95;;;7.90;99.90;;;;;;4991645;28;20294;-79
2021/04/20 02:19:01;;;;;;;16.85;14.13;;;7.80;99.90;;;;;;4985577;28;20239;-79
2021/04/20 02:21:29;;;;;;;14.10;12.60;;;7.80;99.90;;;;;;4991696;28;20264;-77
2021/04/20 02:23:55;;;;;;;16.23;13.10;;;7.80;99.90;;;;;;4985045;28;20758;-80
2021/04/20 02:26:27;;;;;;;15.27;13.35;;;7.70;99.90;;;;;;4994259;28;20294;-78
2021/04/20 02:28:57;;;;;;;15.75;13.23;;;7.70;99.90;;;;;;4999003;28;20213;-80
2021/04/20 02:31:23;;;;;;;15.10;13.50;;;7.70;99.90;;;;;;4990377;28;20301;-78
2021/04/20 02:33:51;;;;;;;20.05;15.63;;;7.60;99.90;;;;;;4995064;28;20248;-79
2021/04/20 02:36:17;;;;;;;19.27;16.05;;;7.60;99.90;;;;;;4986178;28;20595;-80
2021/04/20 02:38:46;;;;;;;19.33;15.10;;;7.60;99.90;;;;;;4984616;28;20741;-78
2021/04/20 02:41:16;;;;;;;16.70;14.43;;;7.60;99.90;;;;;;4991671;28;20211;-79
2021/04/20 02:43:43;;;;;;;19.55;15.32;;;7.60;99.90;;;;;;4987373;28;20713;-79
2021/04/20 02:46:10;;;;;;;19.25;14.88;;;7.60;99.90;;;;;;4988764;28;20567;-79
2021/04/20 02:48:36;;;;;;;21.48;15.60;;;7.60;99.90;;;;;;4981709;28;20572;-80
2021/04/20 02:51:09;;;;;;;21.90;15.80;;;7.60;99.90;;;;;;4991326;28;20859;-78
2021/04/20 02:53:36;;;;;;;29.77;19.80;;;7.60;99.90;;;;;;4987355;28;20242;-80
2021/04/20 02:56:03;;;;;;;26.33;18.15;;;7.60;99.90;;;;;;4987292;28;20203;-79
2021/04/20 02:58:30;;;;;;;30.92;21.45;;;7.60;99.90;;;;;;4991766;28;20325;-79
2021/04/20 03:01:02;;;;;;;28.00;19.77;;;7.60;99.90;;;;;;4985771;28;20271;-79
2021/04/20 03:03:29;;;;;;;27.77;18.35;;;7.60;99.90;;;;;;4987724;28;20263;-80
2021/04/20 03:05:56;;;;;;;25.13;19.05;;;7.70;99.90;;;;;;4987991;28;20208;-78
2021/04/20 03:08:24;;;;;;;25.15;19.98;;;7.60;99.90;;;;;;4994112;28;20206;-79
2021/04/20 03:10:55;;;;;;;23.08;18.45;;;7.60;99.90;;;;;;4987695;28;20204;-78
2021/04/20 03:13:22;;;;;;;23.23;17.33;;;7.60;99.90;;;;;;4981424;28;20211;-79
2021/04/20 03:15:49;;;;;;;24.23;19.23;;;7.60;99.90;;;;;;4992703;28;20743;-80
2021/04/20 03:18:15;;;;;;;23.52;18.23;;;7.60;99.90;;;;;;4981666;28;20234;-79
2021/04/20 03:20:42;;;;;;;22.48;18.52;;;7.50;99.90;;;;;;4984329;28;20203;-79
2021/04/20 03:23:09;;;;;;;24.45;18.25;;;7.50;99.90;;;;;;4995788;28;20290;-79
2021/04/20 03:25:36;;;;;;;22.38;18.30;;;7.50;99.90;;;;;;4985329;28;20601;-79
2021/04/20 03:28:03;;;;;;;25.95;18.58;;;7.40;99.90;;;;;;4991911;28;20214;-82
2021/04/20 03:30:32;;;;;;;23.25;18.25;;;7.40;99.90;;;;;;4986872;28;20214;-79
2021/04/20 03:33:11;;;;;;;21.63;18.13;;;7.40;99.90;;;;;;4989403;28;20214;-79
2021/04/20 03:35:52;;;;;;;23.10;18.10;;;7.40;99.90;;;;;;4993228;28;20209;-79
2021/04/20 03:38:25;;;;;;;18.83;16.17;;;7.30;99.90;;;;;;4991172;28;20338;-79
2021/04/20 03:40:57;;;;;;;21.23;17.40;;;7.30;99.90;;;;;;4983284;28;20281;-80
2021/04/20 03:43:29;;;;;;;20.67;15.90;;;7.30;99.90;;;;;;4993382;28;20268;-79
2021/04/20 03:46:00;;;;;;;23.25;14.98;;;7.30;99.90;;;;;;4982929;28;20203;-80
2021/04/20 03:48:35;;;;;;;17.63;13.88;;;7.20;99.90;;;;;;4986841;28;20413;-78
2021/04/20 03:51:06;;;;;;;20.08;15.07;;;7.20;99.90;;;;;;4992041;28;20257;-81
2021/04/20 03:53:35;;;;;;;24.10;17.17;;;7.20;99.90;;;;;;4991859;28;20229;-79
2021/04/20 03:56:04;;;;;;;25.02;18.58;;;7.20;99.90;;;;;;4991643;28;20199;-78
2021/04/20 03:58:32;;;;;;;26.33;18.33;;;7.20;99.90;;;;;;4980966;28;20222;-80
2021/04/20 04:01:03;;;;;;;22.27;17.50;;;7.10;99.90;;;;;;4990658;28;20611;-79
2021/04/20 04:03:29;;;;;;;27.10;20.15;;;7.10;99.90;;;;;;4981088;28;20783;-80
2021/04/20 04:05:57;;;;;;;27.90;20.95;;;7.10;99.90;;;;;;4989597;28;20263;-83
2021/04/20 04:08:25;;;;;;;31.00;22.60;;;7.10;99.90;;;;;;4982330;28;20298;-83
2021/04/20 04:10:55;;;;;;;26.23;21.23;;;7.10;99.90;;;;;;4990208;28;20228;-81
2021/04/20 04:13:25;;;;;;;27.08;20.40;;;7.10;99.90;;;;;;4985791;28;20262;-80
2021/04/20 04:15:56;;;;;;;25.20;20.73;;;7.10;99.90;;;;;;4993032;28;20198;-79
2021/04/20 04:18:24;;;;;;;28.52;22.40;;;7.10;99.90;;;;;;4982970;28;20277;-79
2021/04/20 04:20:51;;;;;;;26.90;20.42;;;7.20;99.90;;;;;;4984019;28;20556;-79
2021/04/20 04:23:22;;;;;;;29.63;21.90;;;7.20;99.90;;;;;;4986860;28;20207;-80
2021/04/20 04:25:50;;;;;;;35.08;25.42;;;7.20;99.90;;;;;;4989806;28;20215;-79
2021/04/20 04:28:19;;;;;;;37.28;25.77;;;7.30;99.90;;;;;;4983721;28;20208;-79
2021/04/20 04:30:47;;;;;;;32.13;23.70;;;7.30;99.90;;;;;;4992128;28;20683;-79
2021/04/20 04:33:15;;;;;;;36.67;23.38;;;7.30;99.90;;;;;;4983411;28;20198;-81
2021/04/20 04:35:44;;;;;;;30.83;22.27;;;7.30;99.90;;;;;;4993281;28;20207;-79
2021/04/20 04:38:11;;;;;;;30.20;21.88;;;7.40;99.90;;;;;;4992269;28;20198;-80
2021/04/20 04:40:38;;;;;;;25.80;20.17;;;7.40;99.90;;;;;;4985972;28;20210;-80
2021/04/20 04:43:04;;;;;;;23.10;19.35;;;7.40;99.90;;;;;;4994868;28;20509;-79
2021/04/20 04:45:32;;;;;;;21.38;18.67;;;7.40;99.90;;;;;;4987862;28;20880;-79
2021/04/20 04:47:59;;;;;;;22.42;18.98;;;7.30;99.90;;;;;;4991199;28;20737;-79
2021/04/20 04:50:26;;;;;;;27.55;19.80;;;7.30;99.90;;;;;;4993385;28;20466;-81
2021/04/20 04:52:53;;;;;;;25.08;18.75;;;7.20;99.90;;;;;;4978811;28;20256;-80
2021/04/20 04:55:20;;;;;;;26.27;21.05;;;7.20;99.90;;;;;;4988173;28;20196;-79
2021/04/20 04:57:50;;;;;;;23.58;20.77;;;7.20;99.90;;;;;;4986173;28;20265;-79
2021/04/20 05:00:17;;;;;;;29.20;19.95;;;7.20;99.90;;;;;;4983890;28;20250;-81
2021/04/20 05:02:44;;;;;;;30.40;19.33;;;7.20;99.90;;;;;;4987877;28;20261;-82
2021/04/20 05:05:14;;;;;;;22.65;20.05;;;7.20;99.90;;;;;;4984355;28;20228;-80
2021/04/20 05:07:41;;;;;;;26.92;19.88;;;7.20;99.90;;;;;;4982784;28;20210;-79
2021/04/20 05:10:10;;;;;;;26.23;18.98;;;7.20;99.90;;;;;;4992410;28;20261;-79
2021/04/20 05:12:36;;;;;;;22.60;20.08;;;7.20;99.90;;;;;;4980589;28;20208;-80
2021/04/20 05:15:07;;;;;;;25.35;19.85;;;7.20;99.90;;;;;;4987012;28;20764;-80
2021/04/20 05:17:34;;;;;;;27.15;19.50;;;7.20;99.90;;;;;;4987398;28;20277;-80
2021/04/20 05:20:01;;;;;;;28.25;21.10;;;7.20;99.90;;;;;;4991201;28;20317;-79
2021/04/20 05:22:28;;;;;;;25.35;20.45;;;7.20;99.90;;;;;;4991464;28;20203;-79
2021/04/20 05:24:55;;;;;;;32.65;21.85;;;7.20;99.90;;;;;;4987077;28;20289;-80
2021/04/20 05:27:21;;;;;;;25.98;20.48;;;7.20;99.90;;;;;;4993216;28;20234;-82
2021/04/20 05:29:48;;;;;;;30.80;22.85;;;7.20;99.90;;;;;;4987203;28;20196;-81
2021/04/20 05:32:14;;;;;;;35.50;21.70;;;7.30;99.90;;;;;;4988816;28;20204;-79
2021/04/20 05:34:40;;;;;;;40.17;24.48;;;7.30;99.90;;;;;;4985689;28;20286;-82
2021/04/20 05:37:07;;;;;;;32.47;22.65;;;7.30;99.90;;;;;;4991019;28;20218;-82
2021/04/20 05:39:34;;;;;;;37.00;26.45;;;7.30;99.90;;;;;;4983747;28;20280;-81
2021/04/20 05:42:00;;;;;;;36.58;24.40;;;7.30;99.90;;;;;;4983120;28;20233;-80
2021/04/20 05:44:31;;;;;;;34.10;21.88;;;7.40;99.90;;;;;;4989099;28;20207;-80
2021/04/20 05:46:58;;;;;;;32.42;25.55;;;7.50;99.90;;;;;;4986636;28;20318;-79
2021/04/20 05:49:25;;;;;;;33.83;23.25;;;7.50;99.90;;;;;;4995811;28;20203;-80
2021/04/20 05:51:52;;;;;;;36.53;24.92;;;7.60;99.90;;;;;;4990743;28;20728;-80
2021/04/20 05:54:18;;;;;;;29.98;24.33;;;7.60;99.90;;;;;;4990654;28;20203;-81
2021/04/20 05:56:46;;;;;;;30.50;25.17;;;7.60;99.90;;;;;;4985407;28;20265;-81
2021/04/20 05:59:15;;;;;;;32.13;24.80;;;7.70;99.90;;;;;;4992526;28;20418;-84
2021/04/20 06:01:42;;;;;;;31.13;25.27;;;7.80;99.90;;;;;;4986380;28;20759;-81
2021/04/20 06:04:09;;;;;;;35.85;24.50;;;7.80;99.90;;;;;;4990827;28;20230;-80
2021/04/20 06:06:38;;;;;;;34.83;25.05;;;7.90;99.90;;;;;;4993573;28;20264;-80
2021/04/20 06:09:06;;;;;;;38.28;25.17;;;7.90;99.90;;;;;;4984589;28;20746;-80
2021/04/20 06:11:33;;;;;;;32.00;24.30;;;8.00;99.90;;;;;;4984706;28;20437;-82
2021/04/20 06:14:01;;;;;;;37.55;24.92;;;8.00;99.90;;;;;;4991500;28;20290;-80
2021/04/20 06:16:28;;;;;;;26.05;23.15;;;8.10;99.90;;;;;;4988551;28;20254;-80
2021/04/20 06:18:56;;;;;;;34.10;24.08;;;8.10;99.90;;;;;;4990516;28;20527;-83
2021/04/20 06:21:26;;;;;;;29.05;22.85;;;8.20;99.90;;;;;;4985044;28;20214;-84
2021/04/20 06:23:52;;;;;;;28.50;23.23;;;8.20;99.90;;;;;;4997038;28;20194;-81
2021/04/20 06:26:20;;;;;;;31.10;24.45;;;8.30;99.90;;;;;;4984105;28;20235;-80
2021/04/20 06:28:46;;;;;;;39.20;24.63;;;8.30;99.90;;;;;;4993968;28;20199;-81
2021/04/20 06:31:15;;;;;;;33.38;25.75;;;8.40;99.90;;;;;;4982959;28;20204;-84
2021/04/20 06:33:44;;;;;;;33.55;23.10;;;8.40;99.90;;;;;;4990734;28;20203;-80
2021/04/20 06:36:11;;;;;;;30.55;23.40;;;8.50;99.90;;;;;;4985033;28;20210;-80
2021/04/20 06:38:39;;;;;;;32.67;23.77;;;8.60;99.90;;;;;;4991785;28;20322;-83
2021/04/20 06:41:08;;;;;;;25.95;21.75;;;8.60;99.90;;;;;;4982917;28;20203;-80
2021/04/20 06:43:45;;;;;;;31.10;23.67;;;8.70;99.90;;;;;;4983576;28;20554;-83
2021/04/20 06:46:18;;;;;;;29.05;23.50;;;8.70;99.90;;;;;;4981200;28;20195;-81
2021/04/20 06:48:46;;;;;;;34.20;23.98;;;8.80;99.90;;;;;;4985654;28;20219;-81
2021/04/20 06:51:16;;;;;;;30.00;24.10;;;8.90;99.90;;;;;;4988244;28;20668;-80
2021/04/20 06:53:46;;;;;;;31.05;25.13;;;9.00;99.90;;;;;;4986233;28;20201;-81
2021/04/20 06:56:21;;;;;;;34.10;25.08;;;9.00;99.90;;;;;;4984421;28;20206;-80
2021/04/20 06:58:53;;;;;;;34.55;24.15;;;9.10;99.90;;;;;;4990962;28;20224;-79
2021/04/20 07:01:26;;;;;;;33.33;24.88;;;9.10;99.90;;;;;;4984203;28;20241;-79
2021/04/20 07:04:09;;;;;;;39.72;27.48;;;9.20;99.90;;;;;;4989374;28;20936;-79
2021/04/20 07:06:42;;;;;;;38.78;28.42;;;9.30;99.90;;;;;;4989133;28;20216;-79
2021/04/20 07:09:14;;;;;;;42.78;29.83;;;9.40;99.90;;;;;;4991131;28;20262;-82
2021/04/20 07:11:46;;;;;;;58.42;36.65;;;9.50;99.90;;;;;;4987653;28;20246;-80
2021/04/20 07:14:24;;;;;;;63.28;35.97;;;9.60;99.90;;;;;;4986641;28;20303;-80
2021/04/20 07:16:59;;;;;;;64.80;37.55;;;9.70;99.90;;;;;;4980206;28;20200;-80
2021/04/20 07:19:36;;;;;;;66.63;37.60;;;9.70;99.90;;;;;;4982579;28;20239;-80
2021/04/20 07:22:18;;;;;;;70.85;37.28;;;9.80;99.90;;;;;;4987746;28;20209;-80
2021/04/20 07:25:10;;;;;;;67.90;35.75;;;9.90;99.90;;;;;;4984534;28;20209;-80
2021/04/20 07:27:50;;;;;;;70.78;37.50;;;10.00;99.90;;;;;;4988576;28;20209;-80
2021/04/20 07:30:25;;;;;;;59.00;37.03;;;10.00;99.90;;;;;;4983447;28;20988;-83
2021/04/20 07:33:06;;;;;;;59.05;33.63;;;10.10;99.90;;;;;;4979259;28;20216;-79
2021/04/20 07:35:36;;;;;;;58.17;34.75;;;10.20;99.90;;;;;;4983212;28;20613;-80
2021/04/20 07:38:10;;;;;;;52.30;33.55;;;10.30;99.90;;;;;;4990646;28;20288;-80
2021/04/20 07:40:41;;;;;;;66.80;36.63;;;10.40;99.90;;;;;;4984705;28;20237;-79
2021/04/20 07:43:44;;;;;;;59.97;35.50;;;10.40;99.90;;;;;;4981987;28;20651;-81
2021/04/20 07:46:15;;;;;;;56.80;35.22;;;10.50;99.90;;;;;;4984093;28;20241;-79
2021/04/20 07:48:55;;;;;;;60.20;37.30;;;10.60;99.90;;;;;;4985029;28;20207;-81
2021/04/20 07:51:29;;;;;;;73.95;42.67;;;10.70;99.90;;;;;;4983268;28;20203;-81
2021/04/20 07:54:10;;;;;;;65.75;40.45;;;10.80;99.90;;;;;;4986032;28;20206;-81
2021/04/20 07:56:45;;;;;;;79.72;38.50;;;10.90;99.90;;;;;;4984647;28;20619;-81
2021/04/20 07:59:18;;;;;;;61.08;39.78;;;11.00;99.90;;;;;;4988255;28;20280;-79
2021/04/20 08:01:52;;;;;;;74.82;36.47;;;11.10;99.90;;;;;;4980947;28;20924;-79
2021/04/20 08:04:29;;;;;;;73.20;42.33;;;11.20;99.90;;;;;;4988203;28;20316;-80
2021/04/20 08:07:04;;;;;;;64.93;41.08;;;11.30;99.90;;;;;;4985255;28;20216;-80
2021/04/20 08:09:36;;;;;;;68.70;41.30;;;11.40;99.90;;;;;;4984129;28;20210;-80
2021/04/20 08:12:07;;;;;;;62.95;39.45;;;11.50;99.90;;;;;;4987340;28;20563;-83
2021/04/20 08:14:44;;;;;;;56.63;38.67;;;11.60;99.90;;;;;;4982874;28;20199;-80
2021/04/20 08:17:13;;;;;;;66.28;40.95;;;11.80;99.90;;;;;;4985004;28;20498;-80
2021/04/20 08:19:43;;;;;;;77.87;43.93;;;11.80;99.90;;;;;;4992038;28;20233;-83
2021/04/20 08:22:13;;;;;;;68.55;40.75;;;12.00;99.90;;;;;;4983081;28;20549;-82
2021/04/20 08:24:44;;;;;;;60.92;40.00;;;12.00;99.90;;;;;;4985155;28;20714;-79
2021/04/20 08:27:15;;;;;;;60.50;36.60;;;12.20;99.90;;;;;;4977578;28;20203;-83
2021/04/20 08:29:46;;;;;;;64.20;42.00;;;12.30;99.90;;;;;;4983022;28;20481;-81
2021/04/20 08:32:17;;;;;;;72.10;39.97;;;12.40;99.90;;;;;;4987501;28;20462;-82
2021/04/20 08:34:51;;;;;;;64.70;41.87;;;12.50;99.90;;;;;;4984096;28;20459;-79
2021/04/20 08:37:26;;;;;;;68.47;41.87;;;12.60;99.90;;;;;;4978551;28;20457;-82
2021/04/20 08:40:06;;;;;;;66.60;41.47;;;12.60;99.90;;;;;;4983090;28;20484;-79
2021/04/20 08:42:40;;;;;;;68.10;41.47;;;12.80;99.90;;;;;;4984157;28;20464;-83
2021/04/20 08:45:14;;;;;;;60.93;37.47;;;12.90;99.90;;;;;;4983517;28;21105;-83
2021/04/20 08:47:52;;;;;;;66.47;41.90;;;13.10;99.90;;;;;;4989725;28;21024;-80
2021/04/20 08:50:23;;;;;;;59.90;40.30;;;13.20;99.90;;;;;;4985737;28;20471;-80
2021/04/20 08:52:55;;;;;;;63.53;39.60;;;13.30;99.90;;;;;;4991209;28;20469;-79
2021/04/20 08:55:32;;;;;;;58.30;38.37;;;13.50;99.90;;;;;;4998073;28;20985;-82
2021/04/20 08:58:25;;;;;;;55.77;38.23;;;13.60;99.90;;;;;;4988797;28;20808;-81
2021/04/20 09:01:02;;;;;;;58.40;38.83;;;13.70;99.90;;;;;;4985186;28;20496;-81
2021/04/20 09:03:33;;;;;;;53.97;38.33;;;13.80;99.90;;;;;;4981003;28;20486;-82
2021/04/20 09:06:04;;;;;;;57.93;40.67;;;14.00;99.90;;;;;;4983332;28;20466;-80
2021/04/20 09:08:34;;;;;;;43.93;31.20;;;14.10;99.90;;;;;;4986405;28;20551;-82
2021/04/20 09:11:11;;;;;;;38.67;25.37;;;14.30;99.90;;;;;;4987650;28;20471;-84
2021/04/20 09:13:44;;;;;;;39.83;27.27;;;14.50;99.90;;;;;;4993286;28;20490;-83
2021/04/20 09:16:13;;;;;;;51.83;35.37;;;14.70;99.90;;;;;;4989597;28;20494;-81
2021/04/20 09:18:43;;;;;;;56.53;35.87;;;14.90;99.90;;;;;;4989548;28;20475;-79
2021/04/20 09:21:19;;;;;;;53.63;36.60;;;15.00;99.90;;;;;;4979624;28;20462;-81
2021/04/20 09:23:58;;;;;;;49.63;32.23;;;15.00;99.90;;;;;;5001056;28;20555;-84
2021/04/20 09:26:32;;;;;;;38.77;28.20;;;15.10;99.90;;;;;;4984954;28;20469;-79
2021/04/20 09:29:08;;;;;;;38.23;25.37;;;15.10;99.90;;;;;;5005949;28;20464;-80
2021/04/20 09:31:40;;;;;;;36.13;25.40;;;15.10;99.90;;;;;;4995406;28;20469;-80
2021/04/20 09:34:09;;;;;;;38.23;24.80;;;15.20;99.90;;;;;;4999124;28;20816;-80
2021/04/20 09:36:39;;;;;;;38.50;26.97;;;15.20;99.90;;;;;;4989596;28;20997;-80
2021/04/20 09:39:08;;;;;;;36.57;26.70;;;15.30;99.90;;;;;;4990555;28;20493;-81
2021/04/20 09:41:39;;;;;;;42.37;27.20;;;15.30;99.90;;;;;;5005441;28;20463;-82
2021/04/20 09:44:14;;;;;;;35.40;24.33;;;15.30;99.90;;;;;;4989889;28;20467;-81
2021/04/20 09:46:51;;;;;;;38.40;25.20;;;15.40;99.90;;;;;;4997628;28;20519;-80
2021/04/20 09:49:35;;;;;;;38.27;27.33;;;15.50;99.90;;;;;;4991738;28;20459;-80
2021/04/20 09:52:09;;;;;;;37.83;26.83;;;15.60;99.90;;;;;;5001390;28;20799;-81
2021/04/20 09:54:41;;;;;;;41.53;26.73;;;15.70;99.90;;;;;;4981776;28;20849;-80
2021/04/20 09:57:09;;;;;;;35.50;25.80;;;15.70;99.90;;;;;;4990449;28;20460;-81
2021/04/20 09:59:42;;;;;;;40.47;28.20;;;15.80;99.90;;;;;;4996752;28;20496;-80
2021/04/20 10:02:25;;;;;;;33.97;25.80;;;15.90;99.90;;;;;;4993450;28;20469;-80
2021/04/20 10:05:06;;;;;;;36.70;25.40;;;15.90;99.90;;;;;;4998650;28;20464;-80
2021/04/20 10:07:42;;;;;;;40.07;27.47;;;16.00;99.90;;;;;;4984828;28;20503;-84
2021/04/20 10:10:15;;;;;;;34.67;24.93;;;16.10;99.90;;;;;;4987010;28;20466;-82
2021/04/20 10:13:05;;;;;;;33.93;23.30;;;16.20;99.90;;;;;;4993697;28;20468;-80
2021/04/20 10:15:39;;;;;;;30.73;20.53;;;16.30;99.90;;;;;;4981547;28;20473;-81
2021/04/20 10:18:15;;;;;;;30.87;21.80;;;16.30;99.90;;;;;;4985517;28;20470;-81
2021/04/20 10:20:52;;;;;;;29.70;22.13;;;16.40;99.90;;;;;;4994421;28;20501;-82
2021/04/20 10:23:31;;;;;;;30.30;20.50;;;16.40;99.90;;;;;;4985062;28;20469;-80
2021/04/20 10:26:05;;;;;;;22.10;16.80;;;16.50;99.90;;;;;;4994275;28;20893;-81
2021/04/20 10:29:10;;;;;;;20.63;16.50;;;16.60;99.90;;;;;;4984773;28;20519;-80
2021/04/20 10:31:42;;;;;;;19.73;15.77;;;16.70;99.90;;;;;;4995835;28;20465;-80
2021/04/20 10:36:53;;;;;;;15.27;12.33;;;16.80;99.90;;;;;;4944996;28;20472;-81
2021/04/20 10:39:23;;;;;;;16.13;11.90;;;16.90;99.90;;;;;;4989184;28;20596;-80
2021/04/20 10:41:51;;;;;;;22.60;15.30;;;17.00;99.90;;;;;;4996720;28;20982;-82
2021/04/20 10:44:18;;;;;;;20.13;14.50;;;17.10;99.90;;;;;;4985865;28;20469;-82
2021/04/20 10:46:53;;;;;;;18.33;14.33;;;17.20;99.90;;;;;;4985106;28;20476;-80
2021/04/20 10:49:22;;;;;;;16.70;13.47;;;17.20;99.70;;;;;;4983585;28;20512;-83
2021/04/20 10:51:54;;;;;;;14.00;10.73;;;17.40;99.60;;;;;;4985626;28;20463;-83
2021/04/20 10:54:23;;;;;;;14.77;11.93;;;17.50;99.80;;;;;;4985131;28;20471;-82
2021/04/20 10:56:54;;;;;;;16.00;12.23;;;17.60;99.30;;;;;;4987540;28;20998;-79
2021/04/20 10:59:26;;;;;;;15.03;11.53;;;17.80;99.10;;;;;;4990778;28;20482;-79
2021/04/20 11:01:54;;;;;;;21.07;12.63;;;17.90;98.40;;;;;;4985874;28;20503;-80
2021/04/20 11:04:23;;;;;;;19.83;13.50;;;18.00;98.80;;;;;;4991814;28;20852;-80
2021/04/20 11:07:09;;;;;;;18.03;12.70;;;18.00;98.20;;;;;;4984742;28;20891;-81
2021/04/20 11:09:37;;;;;;;18.63;13.97;;;18.10;99.00;;;;;;4993000;28;21010;-82
2021/04/20 11:12:13;;;;;;;17.10;13.10;;;18.20;98.30;;;;;;4983475;28;20476;-80
2021/04/20 11:14:41;;;;;;;25.70;15.27;;;18.40;98.00;;;;;;4991258;28;20558;-80
2021/04/20 11:17:14;;;;;;;16.57;13.40;;;18.50;97.70;;;;;;4989213;28;20473;-80
2021/04/20 11:19:46;;;;;;;18.83;14.70;;;18.50;98.30;;;;;;4982378;28;20779;-80
2021/04/20 11:22:16;;;;;;;14.97;13.30;;;18.60;97.90;;;;;;4980725;28;20476;-80
2021/04/20 11:24:50;;;;;;;20.30;14.13;;;18.70;98.60;;;;;;4983180;28;20485;-80
2021/04/20 11:27:22;;;;;;;17.33;14.10;;;18.80;98.50;;;;;;4994045;28;20844;-79
2021/04/20 11:29:55;;;;;;;18.60;14.63;;;18.80;97.70;;;;;;4981613;28;20472;-79
2021/04/20 11:32:25;;;;;;;18.97;15.07;;;18.80;97.70;;;;;;4986129;28;20469;-79
2021/04/20 11:34:56;;;;;;;18.33;14.70;;;18.80;97.10;;;;;;4986459;28;20467;-79
2021/04/20 11:37:24;;;;;;;23.30;15.60;;;18.80;97.20;;;;;;4984982;28;20476;-78
2021/04/20 11:39:56;;;;;;;18.87;14.87;;;18.70;96.20;;;;;;4980917;28;20493;-79
2021/04/20 11:42:27;;;;;;;22.17;15.17;;;18.60;96.80;;;;;;4993298;28;20470;-79
2021/04/20 11:44:58;;;;;;;21.23;15.87;;;18.60;97.00;;;;;;4982195;28;20468;-79
2021/04/20 11:47:25;;;;;;;21.10;13.93;;;18.40;96.80;;;;;;4995492;28;20574;-79
2021/04/20 11:49:56;;;;;;;21.23;15.73;;;18.30;96.50;;;;;;4981611;28;20470;-79
2021/04/20 11:52:26;;;;;;;19.67;14.77;;;18.30;96.90;;;;;;4992323;28;20729;-81
2021/04/20 11:54:59;;;;;;;18.13;13.40;;;18.20;96.80;;;;;;4984872;28;20592;-82
2021/04/20 11:57:27;;;;;;;17.10;13.07;;;18.20;97.20;;;;;;4987181;28;20976;-80
2021/04/20 11:59:54;;;;;;;15.50;11.80;;;18.20;96.80;;;;;;4991375;28;20518;-80
2021/04/20 12:02:27;;;;;;;16.60;12.47;;;18.20;97.20;;;;;;4985099;28;20522;-82
2021/04/20 12:04:59;;;;;;;20.17;15.67;;;18.20;95.40;;;;;;4984377;28;20877;-79
2021/04/20 12:07:27;;;;;;;21.33;16.33;;;18.10;96.00;;;;;;4978525;28;20476;-79
2021/04/20 12:09:54;;;;;;;17.43;15.07;;;18.10;95.60;;;;;;4987138;28;20477;-79
2021/04/20 12:12:27;;;;;;;17.47;14.00;;;18.00;96.10;;;;;;4986994;28;20572;-80
2021/04/20 12:14:55;;;;;;;17.53;14.20;;;18.00;96.40;;;;;;4990622;28;20480;-80
2021/04/20 12:17:27;;;;;;;17.50;14.43;;;17.90;96.00;;;;;;4984513;28;20591;-79
2021/04/20 12:19:57;;;;;;;21.37;14.77;;;17.80;96.10;;;;;;4989159;28;20493;-79
2021/04/20 12:22:25;;;;;;;17.50;14.53;;;17.80;96.20;;;;;;4979158;28;20507;-79
2021/04/20 12:24:52;;;;;;;18.83;14.07;;;17.80;95.70;;;;;;4986048;28;20485;-79
2021/04/20 12:27:24;;;;;;;17.43;14.87;;;17.70;95.20;;;;;;4983922;28;20467;-79
2021/04/20 12:29:53;;;;;;;16.40;13.17;;;17.70;95.70;;;;;;4979378;28;20501;-79
2021/04/20 12:32:22;;;;;;;16.80;13.80;;;17.60;95.60;;;;;;4988748;28;21069;-79
2021/04/20 12:34:54;;;;;;;17.00;13.30;;;17.60;96.00;;;;;;4985216;28;20531;-79
2021/04/20 12:37:23;;;;;;;19.70;13.00;;;17.60;95.60;;;;;;4982746;28;20475;-80
2021/04/20 12:39:57;;;;;;;17.10;12.93;;;17.60;95.20;;;;;;4980577;28;20500;-79
2021/04/20 12:42:28;;;;;;;17.60;13.53;;;17.60;95.70;;;;;;4988001;28;20472;-79
2021/04/20 12:44:58;;;;;;;16.33;13.90;;;17.60;96.00;;;;;;4985642;28;20482;-78
2021/04/20 12:47:30;;;;;;;17.73;13.50;;;17.70;96.30;;;;;;4986746;28;20555;-80
2021/04/20 12:49:58;;;;;;;17.13;12.90;;;17.70;96.50;;;;;;4982464;28;20786;-79
2021/04/20 12:52:27;;;;;;;18.07;14.80;;;17.80;96.50;;;;;;4994370;28;20463;-79